sensor_id;sensor_type;location;lat;lon;timestamp;pressure;altitude;pressure_sealevel;temperature;humidity
19457;BME280;9867;48.094;11.478;2023-04-01T00:00:33;94000.91;;;6.88;100.00
19457;BME280;9867;48.094;11.478;2023-04-01T00:03:01;93994.03;;;6.89;100.00
19457;BME280;9867;48.094;11.478;2023-04-01T00:05:31;93994.09;;;6.75;100.00
19457;BME280;9867;48.094;11.478;2023-04-01T00:07:59;93991.47;;;6.95;100.00
19457;BME280;9867;48.094;11.478;2023-04-01T00:10:27;93999.69;;;6.97;100.00
19457;BME280;9867;48.094;11.478;2023-04-01T00:12:55;93987.75;;;6.91;100.00
19457;BME280;9867;48.094;11.478;2023-04-01T00:15:23;93980.31;;;6.90;100.00
19457;BME280;9867;48.094;11.478;2023-04-01T00:17:51;94001.69;;;6.89;100.00
19457;BME280;9867;48.094;11.478;2023-04-01T00:20:19;93986.19;;;6.90;100.00
19457;BME280;9867;48.094;11.478;2023-04-01T00:22:49;93982.84;;;6.90;100.00
19457;BME280;9867;48.094;11.478;2023-04-01T00:25:17;93975.59;;;6.87;100.00
19457;BME280;9867;48.094;11.478;2023-04-01T00:27:45;93974.63;;;6.88;100.00
19457;BME280;9867;48.094;11.478;2023-04-01T00:30:13;93975.78;;;6.92;100.00
19457;BME280;9867;48.094;11.478;2023-04-01T00:32:42;93972.44;;;6.91;100.00
19457;BME280;9867;48.094;11.478;2023-04-01T00:35:10;93976.78;;;6.91;100.00
19457;BME280;9867;48.094;11.478;2023-04-01T00:37:39;93968.78;;;6.80;100.00
19457;BME280;9867;48.094;11.478;2023-04-01T00:40:22;93976.03;;;6.83;100.00
19457;BME280;9867;48.094;11.478;2023-04-01T00:42:51;93972.13;;;6.81;100.00
19457;BME280;9867;48.094;11.478;2023-04-01T00:45:39;93969.56;;;6.81;100.00
19457;BME280;9867;48.094;11.478;2023-04-01T00:48:10;93967.81;;;6.81;100.00
19457;BME280;9867;48.094;11.478;2023-04-01T00:50:40;93971.91;;;6.82;100.00
19457;BME280;9867;48.094;11.478;2023-04-01T00:53:10;93970.94;;;6.83;100.00
19457;BME280;9867;48.094;11.478;2023-04-01T00:55:44;93967.41;;;6.84;100.00
19457;BME280;9867;48.094;11.478;2023-04-01T00:58:15;93975.97;;;6.97;100.00
19457;BME280;9867;48.094;11.478;2023-04-01T01:00:46;93962.84;;;6.93;100.00
19457;BME280;9867;48.094;11.478;2023-04-01T01:03:16;93964.38;;;7.01;100.00
19457;BME280;9867;48.094;11.478;2023-04-01T01:06:02;93969.28;;;7.02;100.00
19457;BME280;9867;48.094;11.478;2023-04-01T01:08:50;93978.88;;;7.07;100.00
19457;BME280;9867;48.094;11.478;2023-04-01T01:11:25;93972.34;;;7.11;100.00
19457;BME280;9867;48.094;11.478;2023-04-01T01:14:15;93956.66;;;7.14;100.00
19457;BME280;9867;48.094;11.478;2023-04-01T01:16:51;93969.59;;;7.19;100.00
19457;BME280;9867;48.094;11.478;2023-04-01T01:19:46;93971.38;;;7.12;100.00
19457;BME280;9867;48.094;11.478;2023-04-01T01:22:33;93954.31;;;7.12;100.00
19457;BME280;9867;48.094;11.478;2023-04-01T01:25:19;93968.59;;;7.20;100.00
19457;BME280;9867;48.094;11.478;2023-04-01T01:27:59;93970.34;;;7.26;100.00
19457;BME280;9867;48.094;11.478;2023-04-01T01:30:39;93962.91;;;7.18;100.00
19457;BME280;9867;48.094;11.478;2023-04-01T01:33:41;93977.03;;;7.21;100.00
19457;BME280;9867;48.094;11.478;2023-04-01T01:36:15;93963.91;;;7.17;100.00
19457;BME280;9867;48.094;11.478;2023-04-01T01:38:45;93964.31;;;7.14;100.00
19457;BME280;9867;48.094;11.478;2023-04-01T01:41:15;93968.63;;;7.13;100.00
19457;BME280;9867;48.094;11.478;2023-04-01T01:43:47;93964.56;;;7.06;100.00
19457;BME280;9867;48.094;11.478;2023-04-01T01:46:19;93955.72;;;7.08;100.00
19457;BME280;9867;48.094;11.478;2023-04-01T01:48:49;93969.66;;;7.06;100.00
19457;BME280;9867;48.094;11.478;2023-04-01T01:51:21;93964.50;;;7.12;100.00
19457;BME280;9867;48.094;11.478;2023-04-01T01:53:50;93963.72;;;7.12;100.00
19457;BME280;9867;48.094;11.478;2023-04-01T01:56:22;93957.84;;;7.11;100.00
19457;BME280;9867;48.094;11.478;2023-04-01T01:58:53;93966.44;;;7.17;100.00
19457;BME280;9867;48.094;11.478;2023-04-01T02:01:25;93953.72;;;7.10;100.00
19457;BME280;9867;48.094;11.478;2023-04-01T02:03:58;93968.00;;;7.25;100.00
19457;BME280;9867;48.094;11.478;2023-04-01T02:06:30;93975.47;;;7.19;100.00
19457;BME280;9867;48.094;11.478;2023-04-01T02:09:02;93981.56;;;7.18;100.00
19457;BME280;9867;48.094;11.478;2023-04-01T02:11:34;93990.97;;;7.18;100.00
19457;BME280;9867;48.094;11.478;2023-04-01T02:14:06;93982.91;;;7.21;100.00
19457;BME280;9867;48.094;11.478;2023-04-01T02:16:39;93994.88;;;7.27;100.00
19457;BME280;9867;48.094;11.478;2023-04-01T02:19:10;93973.53;;;7.15;100.00
19457;BME280;9867;48.094;11.478;2023-04-01T02:21:42;93980.97;;;7.16;100.00
19457;BME280;9867;48.094;11.478;2023-04-01T02:24:13;93974.28;;;7.22;100.00
19457;BME280;9867;48.094;11.478;2023-04-01T02:26:42;93958.00;;;7.23;100.00
19457;BME280;9867;48.094;11.478;2023-04-01T02:29:12;93993.91;;;7.22;100.00
19457;BME280;9867;48.094;11.478;2023-04-01T02:31:41;93974.66;;;7.26;100.00
19457;BME280;9867;48.094;11.478;2023-04-01T02:34:10;93984.88;;;7.26;100.00
19457;BME280;9867;48.094;11.478;2023-04-01T02:36:38;93995.25;;;7.24;100.00
19457;BME280;9867;48.094;11.478;2023-04-01T02:39:08;94004.69;;;7.24;100.00
19457;BME280;9867;48.094;11.478;2023-04-01T02:41:39;93995.28;;;7.17;100.00
19457;BME280;9867;48.094;11.478;2023-04-01T02:44:08;93988.00;;;7.21;100.00
19457;BME280;9867;48.094;11.478;2023-04-01T02:46:36;93993.53;;;7.11;100.00
19457;BME280;9867;48.094;11.478;2023-04-01T02:49:05;93997.66;;;7.12;100.00
19457;BME280;9867;48.094;11.478;2023-04-01T02:51:33;94002.97;;;7.11;100.00
19457;BME280;9867;48.094;11.478;2023-04-01T02:54:01;94015.31;;;7.14;100.00
19457;BME280;9867;48.094;11.478;2023-04-01T02:56:31;93985.31;;;7.09;100.00
19457;BME280;9867;48.094;11.478;2023-04-01T02:58:59;94001.78;;;7.13;100.00
19457;BME280;9867;48.094;11.478;2023-04-01T03:01:27;94002.59;;;7.07;100.00
19457;BME280;9867;48.094;11.478;2023-04-01T03:03:55;93995.34;;;7.04;100.00
19457;BME280;9867;48.094;11.478;2023-04-01T03:06:23;93993.41;;;7.00;100.00
19457;BME280;9867;48.094;11.478;2023-04-01T03:08:50;93978.13;;;6.93;100.00
19457;BME280;9867;48.094;11.478;2023-04-01T03:11:18;93999.50;;;6.92;100.00
19457;BME280;9867;48.094;11.478;2023-04-01T03:13:49;94006.56;;;6.97;100.00
19457;BME280;9867;48.094;11.478;2023-04-01T03:16:17;94008.72;;;6.93;100.00
19457;BME280;9867;48.094;11.478;2023-04-01T03:18:44;93998.31;;;7.01;100.00
19457;BME280;9867;48.094;11.478;2023-04-01T03:21:16;94010.28;;;6.94;100.00
19457;BME280;9867;48.094;11.478;2023-04-01T03:23:45;94000.69;;;6.96;100.00
19457;BME280;9867;48.094;11.478;2023-04-01T03:26:13;94019.50;;;6.95;100.00
19457;BME280;9867;48.094;11.478;2023-04-01T03:28:41;94004.41;;;6.87;100.00
19457;BME280;9867;48.094;11.478;2023-04-01T03:31:11;93999.56;;;6.79;100.00
19457;BME280;9867;48.094;11.478;2023-04-01T03:33:46;93995.06;;;6.74;100.00
19457;BME280;9867;48.094;11.478;2023-04-01T03:36:14;94001.75;;;6.69;100.00
19457;BME280;9867;48.094;11.478;2023-04-01T03:38:42;94006.44;;;6.65;100.00
19457;BME280;9867;48.094;11.478;2023-04-01T03:41:15;93992.34;;;6.63;100.00
19457;BME280;9867;48.094;11.478;2023-04-01T03:43:43;94004.28;;;6.62;100.00
19457;BME280;9867;48.094;11.478;2023-04-01T03:46:16;93997.03;;;6.66;100.00
19457;BME280;9867;48.094;11.478;2023-04-01T03:48:45;93995.47;;;6.65;100.00
19457;BME280;9867;48.094;11.478;2023-04-01T03:51:13;94045.47;;;6.66;100.00
19457;BME280;9867;48.094;11.478;2023-04-01T03:53:41;94006.63;;;6.70;100.00
19457;BME280;9867;48.094;11.478;2023-04-01T03:56:09;94019.59;;;6.62;100.00
19457;BME280;9867;48.094;11.478;2023-04-01T03:58:38;93997.88;;;6.60;100.00
19457;BME280;9867;48.094;11.478;2023-04-01T04:01:17;94014.72;;;6.54;100.00
19457;BME280;9867;48.094;11.478;2023-04-01T04:03:46;94013.94;;;6.47;100.00
19457;BME280;9867;48.094;11.478;2023-04-01T04:06:16;94017.84;;;6.49;100.00
19457;BME280;9867;48.094;11.478;2023-04-01T04:08:44;94015.13;;;6.51;100.00
19457;BME280;9867;48.094;11.478;2023-04-01T04:11:13;94014.91;;;6.53;100.00
19457;BME280;9867;48.094;11.478;2023-04-01T04:13:42;94021.78;;;6.45;100.00
19457;BME280;9867;48.094;11.478;2023-04-01T04:16:10;94008.06;;;6.53;100.00
19457;BME280;9867;48.094;11.478;2023-04-01T04:18:44;94014.91;;;6.59;100.00
19457;BME280;9867;48.094;11.478;2023-04-01T04:21:13;94014.28;;;6.64;100.00
19457;BME280;9867;48.094;11.478;2023-04-01T04:23:42;94013.31;;;6.71;100.00
19457;BME280;9867;48.094;11.478;2023-04-01T04:26:14;93998.59;;;6.67;100.00
19457;BME280;9867;48.094;11.478;2023-04-01T04:28:48;94011.34;;;6.67;100.00
19457;BME280;9867;48.094;11.478;2023-04-01T04:31:18;94011.75;;;6.64;100.00
19457;BME280;9867;48.094;11.478;2023-04-01T04:33:49;94016.47;;;6.60;100.00
19457;BME280;9867;48.094;11.478;2023-04-01T04:36:18;94030.19;;;6.59;100.00
19457;BME280;9867;48.094;11.478;2023-04-01T04:38:49;94016.69;;;6.59;100.00
19457;BME280;9867;48.094;11.478;2023-04-01T04:41:18;94019.59;;;6.62;100.00
19457;BME280;9867;48.094;11.478;2023-04-01T04:43:51;94029.78;;;6.62;100.00
19457;BME280;9867;48.094;11.478;2023-04-01T04:46:21;94035.25;;;6.66;100.00
19457;BME280;9867;48.094;11.478;2023-04-01T04:48:56;94043.09;;;6.71;100.00
19457;BME280;9867;48.094;11.478;2023-04-01T04:51:25;94027.41;;;6.67;100.00
19457;BME280;9867;48.094;11.478;2023-04-01T04:53:53;94029.38;;;6.78;100.00
19457;BME280;9867;48.094;11.478;2023-04-01T04:56:31;94049.94;;;6.77;100.00
19457;BME280;9867;48.094;11.478;2023-04-01T04:59:04;94038.16;;;6.89;100.00
19457;BME280;9867;48.094;11.478;2023-04-01T05:01:41;94031.28;;;6.90;100.00
19457;BME280;9867;48.094;11.478;2023-04-01T05:04:11;94048.34;;;6.96;100.00
19457;BME280;9867;48.094;11.478;2023-04-01T05:06:39;94045.97;;;7.01;100.00
19457;BME280;9867;48.094;11.478;2023-04-01T05:09:06;94055.16;;;7.08;100.00
19457;BME280;9867;48.094;11.478;2023-04-01T05:11:35;94044.53;;;7.11;100.00
19457;BME280;9867;48.094;11.478;2023-04-01T05:14:03;94057.69;;;7.15;100.00
19457;BME280;9867;48.094;11.478;2023-04-01T05:16:31;94054.72;;;7.25;100.00
19457;BME280;9867;48.094;11.478;2023-04-01T05:18:59;94042.94;;;7.24;100.00
19457;BME280;9867;48.094;11.478;2023-04-01T05:21:28;94058.25;;;7.24;100.00
19457;BME280;9867;48.094;11.478;2023-04-01T05:23:57;94047.06;;;7.25;100.00
19457;BME280;9867;48.094;11.478;2023-04-01T05:26:25;94041.38;;;7.23;100.00
19457;BME280;9867;48.094;11.478;2023-04-01T05:28:53;94038.25;;;7.21;100.00
19457;BME280;9867;48.094;11.478;2023-04-01T05:31:21;94033.94;;;7.21;100.00
19457;BME280;9867;48.094;11.478;2023-04-01T05:33:50;94029.03;;;7.19;100.00
19457;BME280;9867;48.094;11.478;2023-04-01T05:36:20;94066.69;;;7.24;100.00
19457;BME280;9867;48.094;11.478;2023-04-01T05:38:49;94065.09;;;7.30;100.00
19457;BME280;9867;48.094;11.478;2023-04-01T05:41:18;94043.13;;;7.29;100.00
19457;BME280;9867;48.094;11.478;2023-04-01T05:43:47;94045.66;;;7.29;100.00
19457;BME280;9867;48.094;11.478;2023-04-01T05:46:43;94030.00;;;7.25;100.00
19457;BME280;9867;48.094;11.478;2023-04-01T05:49:22;94064.09;;;7.31;100.00
19457;BME280;9867;48.094;11.478;2023-04-01T05:51:54;94043.72;;;7.31;100.00
19457;BME280;9867;48.094;11.478;2023-04-01T05:54:23;94061.13;;;7.34;100.00
19457;BME280;9867;48.094;11.478;2023-04-01T05:56:52;94055.81;;;7.35;100.00
19457;BME280;9867;48.094;11.478;2023-04-01T05:59:20;94041.88;;;7.38;100.00
19457;BME280;9867;48.094;11.478;2023-04-01T06:01:48;94042.69;;;7.76;100.00
19457;BME280;9867;48.094;11.478;2023-04-01T06:04:17;94052.50;;;7.73;100.00
19457;BME280;9867;48.094;11.478;2023-04-01T06:06:45;94043.88;;;7.74;100.00
19457;BME280;9867;48.094;11.478;2023-04-01T06:09:15;94053.31;;;7.67;100.00
19457;BME280;9867;48.094;11.478;2023-04-01T06:12:21;94036.94;;;7.49;100.00
19457;BME280;9867;48.094;11.478;2023-04-01T06:15:04;94055.97;;;7.53;100.00
19457;BME280;9867;48.094;11.478;2023-04-01T06:17:50;94039.69;;;7.48;100.00
19457;BME280;9867;48.094;11.478;2023-04-01T06:20:27;94043.03;;;7.48;100.00
19457;BME280;9867;48.094;11.478;2023-04-01T06:23:12;94060.63;;;7.57;100.00
19457;BME280;9867;48.094;11.478;2023-04-01T06:25:50;94029.66;;;7.53;100.00
19457;BME280;9867;48.094;11.478;2023-04-01T06:31:29;94063.94;;;7.64;100.00
19457;BME280;9867;48.094;11.478;2023-04-01T06:37:24;94052.31;;;7.74;100.00
19457;BME280;9867;48.094;11.478;2023-04-01T06:40:06;94053.50;;;7.72;100.00
19457;BME280;9867;48.094;11.478;2023-04-01T06:42:47;94070.97;;;7.75;100.00
19457;BME280;9867;48.094;11.478;2023-04-01T06:45:50;94057.59;;;7.79;100.00
19457;BME280;9867;48.094;11.478;2023-04-01T06:48:48;94048.09;;;7.86;100.00
19457;BME280;9867;48.094;11.478;2023-04-01T06:51:47;94048.59;;;8.02;100.00
19457;BME280;9867;48.094;11.478;2023-04-01T06:54:40;94052.03;;;8.14;100.00
19457;BME280;9867;48.094;11.478;2023-04-01T06:57:31;94046.81;;;8.27;100.00
19457;BME280;9867;48.094;11.478;2023-04-01T07:00:05;94059.97;;;8.31;100.00
19457;BME280;9867;48.094;11.478;2023-04-01T07:02:45;94044.63;;;8.37;100.00
19457;BME280;9867;48.094;11.478;2023-04-01T07:05:15;94068.19;;;8.39;100.00
19457;BME280;9867;48.094;11.478;2023-04-01T07:07:45;94068.94;;;8.46;100.00
19457;BME280;9867;48.094;11.478;2023-04-01T07:10:17;94057.91;;;8.46;100.00
19457;BME280;9867;48.094;11.478;2023-04-01T07:13:10;94082.16;;;8.37;100.00
19457;BME280;9867;48.094;11.478;2023-04-01T07:16:03;94088.72;;;8.26;100.00
19457;BME280;9867;48.094;11.478;2023-04-01T07:18:41;94070.38;;;8.36;100.00
19457;BME280;9867;48.094;11.478;2023-04-01T07:21:20;94075.81;;;8.46;100.00
19457;BME280;9867;48.094;11.478;2023-04-01T07:23:50;94077.09;;;8.55;100.00
19457;BME280;9867;48.094;11.478;2023-04-01T07:26:57;94073.28;;;8.64;100.00
19457;BME280;9867;48.094;11.478;2023-04-01T07:29:29;94096.88;;;8.66;100.00
19457;BME280;9867;48.094;11.478;2023-04-01T07:32:19;94072.47;;;8.45;100.00
19457;BME280;9867;48.094;11.478;2023-04-01T07:34:59;94071.41;;;8.53;100.00
19457;BME280;9867;48.094;11.478;2023-04-01T07:37:33;94066.16;;;8.48;100.00
19457;BME280;9867;48.094;11.478;2023-04-01T07:40:17;94068.38;;;8.63;100.00
19457;BME280;9867;48.094;11.478;2023-04-01T07:43:00;94059.00;;;8.75;100.00
19457;BME280;9867;48.094;11.478;2023-04-01T07:45:39;94057.75;;;9.02;100.00
19457;BME280;9867;48.094;11.478;2023-04-01T07:48:18;94071.25;;;9.09;100.00
19457;BME280;9867;48.094;11.478;2023-04-01T07:50:54;94073.63;;;9.11;100.00
19457;BME280;9867;48.094;11.478;2023-04-01T07:53:31;94063.22;;;9.24;100.00
19457;BME280;9867;48.094;11.478;2023-04-01T07:56:06;94081.22;;;9.36;100.00
19457;BME280;9867;48.094;11.478;2023-04-01T07:58:46;94069.91;;;9.43;100.00
19457;BME280;9867;48.094;11.478;2023-04-01T08:01:42;94070.59;;;9.50;100.00
19457;BME280;9867;48.094;11.478;2023-04-01T08:04:26;94070.22;;;9.65;100.00
19457;BME280;9867;48.094;11.478;2023-04-01T08:07:05;94085.59;;;9.47;100.00
19457;BME280;9867;48.094;11.478;2023-04-01T08:09:44;94066.09;;;9.46;100.00
19457;BME280;9867;48.094;11.478;2023-04-01T08:12:41;94096.50;;;9.42;100.00
19457;BME280;9867;48.094;11.478;2023-04-01T08:15:38;94072.34;;;9.68;100.00
19457;BME280;9867;48.094;11.478;2023-04-01T08:18:26;94069.59;;;9.81;100.00
19457;BME280;9867;48.094;11.478;2023-04-01T08:20:58;94070.19;;;9.83;100.00
19457;BME280;9867;48.094;11.478;2023-04-01T08:23:31;94060.66;;;9.72;100.00
19457;BME280;9867;48.094;11.478;2023-04-01T08:26:03;94066.00;;;9.71;100.00
19457;BME280;9867;48.094;11.478;2023-04-01T08:28:40;94079.53;;;9.60;100.00
19457;BME280;9867;48.094;11.478;2023-04-01T08:31:12;94075.63;;;9.57;100.00
19457;BME280;9867;48.094;11.478;2023-04-01T08:33:44;94065.63;;;9.85;100.00
19457;BME280;9867;48.094;11.478;2023-04-01T08:36:16;94080.91;;;10.34;100.00
19457;BME280;9867;48.094;11.478;2023-04-01T08:38:55;94092.19;;;10.03;100.00
19457;BME280;9867;48.094;11.478;2023-04-01T08:41:48;94069.41;;;9.95;100.00
19457;BME280;9867;48.094;11.478;2023-04-01T08:47:45;94069.00;;;10.39;100.00
19457;BME280;9867;48.094;11.478;2023-04-01T08:50:26;94119.59;;;10.32;100.00
19457;BME280;9867;48.094;11.478;2023-04-01T08:53:12;94065.19;;;10.30;100.00
19457;BME280;9867;48.094;11.478;2023-04-01T08:55:51;94055.50;;;10.44;100.00
19457;BME280;9867;48.094;11.478;2023-04-01T09:01:46;94053.78;;;11.31;100.00
19457;BME280;9867;48.094;11.478;2023-04-01T09:04:57;94058.38;;;11.17;100.00
19457;BME280;9867;48.094;11.478;2023-04-01T09:07:37;94056.03;;;11.16;100.00
19457;BME280;9867;48.094;11.478;2023-04-01T09:10:40;94083.94;;;10.66;100.00
19457;BME280;9867;48.094;11.478;2023-04-01T09:13:59;94048.72;;;10.73;100.00
19457;BME280;9867;48.094;11.478;2023-04-01T09:17:01;94040.97;;;11.19;100.00
19457;BME280;9867;48.094;11.478;2023-04-01T09:19:46;94047.16;;;11.35;100.00
19457;BME280;9867;48.094;11.478;2023-04-01T09:22:28;94049.28;;;11.67;100.00
19457;BME280;9867;48.094;11.478;2023-04-01T09:25:12;94036.72;;;11.13;100.00
19457;BME280;9867;48.094;11.478;2023-04-01T09:27:54;94039.59;;;11.28;100.00
19457;BME280;9867;48.094;11.478;2023-04-01T09:30:42;94044.56;;;11.75;100.00
19457;BME280;9867;48.094;11.478;2023-04-01T09:33:42;94049.75;;;11.63;100.00
19457;BME280;9867;48.094;11.478;2023-04-01T09:36:27;94050.16;;;11.04;100.00
19457;BME280;9867;48.094;11.478;2023-04-01T09:39:17;94036.94;;;11.12;100.00
19457;BME280;9867;48.094;11.478;2023-04-01T09:42:01;94062.38;;;11.13;100.00
19457;BME280;9867;48.094;11.478;2023-04-01T09:44:44;94034.16;;;11.13;100.00
19457;BME280;9867;48.094;11.478;2023-04-01T09:47:29;94041.00;;;11.36;100.00
19457;BME280;9867;48.094;11.478;2023-04-01T09:50:21;94026.56;;;11.18;100.00
19457;BME280;9867;48.094;11.478;2023-04-01T09:53:01;94032.25;;;11.20;100.00
19457;BME280;9867;48.094;11.478;2023-04-01T10:05:27;94023.06;;;11.65;100.00
19457;BME280;9867;48.094;11.478;2023-04-01T10:08:22;94020.53;;;11.53;100.00
19457;BME280;9867;48.094;11.478;2023-04-01T10:11:29;94017.66;;;11.49;100.00
19457;BME280;9867;48.094;11.478;2023-04-01T10:14:32;94042.81;;;11.36;100.00
19457;BME280;9867;48.094;11.478;2023-04-01T10:17:48;94027.78;;;11.56;100.00
19457;BME280;9867;48.094;11.478;2023-04-01T10:23:56;94015.72;;;11.85;100.00
19457;BME280;9867;48.094;11.478;2023-04-01T10:26:50;94070.41;;;11.80;100.00
19457;BME280;9867;48.094;11.478;2023-04-01T10:30:28;94007.94;;;11.80;100.00
19457;BME280;9867;48.094;11.478;2023-04-01T10:33:30;94021.41;;;11.58;100.00
19457;BME280;9867;48.094;11.478;2023-04-01T10:45:29;94030.56;;;11.14;100.00
19457;BME280;9867;48.094;11.478;2023-04-01T10:48:23;94053.50;;;10.92;100.00
19457;BME280;9867;48.094;11.478;2023-04-01T10:51:27;94043.22;;;10.92;100.00
19457;BME280;9867;48.094;11.478;2023-04-01T10:54:18;94039.69;;;10.70;100.00
19457;BME280;9867;48.094;11.478;2023-04-01T10:57:35;94043.13;;;10.87;100.00
19457;BME280;9867;48.094;11.478;2023-04-01T11:00:43;94064.34;;;10.59;100.00
19457;BME280;9867;48.094;11.478;2023-04-01T11:04:08;94054.06;;;10.48;100.00
19457;BME280;9867;48.094;11.478;2023-04-01T11:07:29;94064.41;;;10.30;100.00
19457;BME280;9867;48.094;11.478;2023-04-01T11:10:40;94037.72;;;10.07;100.00
19457;BME280;9867;48.094;11.478;2023-04-01T11:16:47;94059.66;;;10.03;100.00
19457;BME280;9867;48.094;11.478;2023-04-01T11:19:41;94080.38;;;10.02;100.00
19457;BME280;9867;48.094;11.478;2023-04-01T11:23:01;94133.53;;;10.06;100.00
19457;BME280;9867;48.094;11.478;2023-04-01T11:25:55;94056.44;;;10.08;100.00
19457;BME280;9867;48.094;11.478;2023-04-01T11:29:15;94088.09;;;10.13;100.00
19457;BME280;9867;48.094;11.478;2023-04-01T11:31:55;94082.91;;;9.90;100.00
19457;BME280;9867;48.094;11.478;2023-04-01T11:34:37;94100.56;;;9.80;100.00
19457;BME280;9867;48.094;11.478;2023-04-01T11:37:23;94093.88;;;9.79;100.00
19457;BME280;9867;48.094;11.478;2023-04-01T11:40:20;94072.88;;;9.88;100.00
19457;BME280;9867;48.094;11.478;2023-04-01T11:43:32;94068.63;;;9.94;100.00
19457;BME280;9867;48.094;11.478;2023-04-01T11:46:27;94058.44;;;9.46;100.00
19457;BME280;9867;48.094;11.478;2023-04-01T11:49:07;94060.75;;;9.17;100.00
19457;BME280;9867;48.094;11.478;2023-04-01T11:52:06;94068.06;;;9.32;100.00
19457;BME280;9867;48.094;11.478;2023-04-01T11:55:02;94076.59;;;9.08;100.00
19457;BME280;9867;48.094;11.478;2023-04-01T11:57:51;94060.94;;;8.98;100.00
19457;BME280;9867;48.094;11.478;2023-04-01T12:00:39;94115.00;;;8.58;100.00
19457;BME280;9867;48.094;11.478;2023-04-01T12:03:21;94051.59;;;8.48;100.00
19457;BME280;9867;48.094;11.478;2023-04-01T12:06:02;94072.34;;;8.34;100.00
19457;BME280;9867;48.094;11.478;2023-04-01T12:08:40;94088.59;;;8.46;100.00
19457;BME280;9867;48.094;11.478;2023-04-01T12:11:17;94065.22;;;8.42;100.00
19457;BME280;9867;48.094;11.478;2023-04-01T12:13:55;94081.47;;;8.23;100.00
19457;BME280;9867;48.094;11.478;2023-04-01T12:16:47;94086.28;;;8.31;100.00
19457;BME280;9867;48.094;11.478;2023-04-01T12:19:24;94073.38;;;8.51;100.00
19457;BME280;9867;48.094;11.478;2023-04-01T12:22:08;94085.13;;;8.34;100.00
19457;BME280;9867;48.094;11.478;2023-04-01T12:24:46;94073.66;;;8.43;100.00
19457;BME280;9867;48.094;11.478;2023-04-01T12:27:38;94073.91;;;8.35;100.00
19457;BME280;9867;48.094;11.478;2023-04-01T12:30:32;94078.84;;;8.30;100.00
19457;BME280;9867;48.094;11.478;2023-04-01T12:33:15;94069.34;;;8.12;100.00
19457;BME280;9867;48.094;11.478;2023-04-01T12:35:55;94075.00;;;8.20;100.00
19457;BME280;9867;48.094;11.478;2023-04-01T12:38:31;94059.09;;;8.18;100.00
19457;BME280;9867;48.094;11.478;2023-04-01T12:41:14;94069.09;;;8.20;100.00
19457;BME280;9867;48.094;11.478;2023-04-01T12:47:06;94070.66;;;8.21;100.00
19457;BME280;9867;48.094;11.478;2023-04-01T12:50:01;94078.50;;;8.26;100.00
19457;BME280;9867;48.094;11.478;2023-04-01T12:52:45;94071.56;;;8.33;100.00
19457;BME280;9867;48.094;11.478;2023-04-01T12:55:40;94071.47;;;8.46;100.00
19457;BME280;9867;48.094;11.478;2023-04-01T12:58:38;94079.63;;;8.30;100.00
19457;BME280;9867;48.094;11.478;2023-04-01T13:01:30;94077.34;;;8.22;100.00
19457;BME280;9867;48.094;11.478;2023-04-01T13:07:55;94083.03;;;8.24;100.00
19457;BME280;9867;48.094;11.478;2023-04-01T13:10:35;94072.59;;;8.26;100.00
19457;BME280;9867;48.094;11.478;2023-04-01T13:13:27;94071.56;;;8.33;100.00
19457;BME280;9867;48.094;11.478;2023-04-01T13:16:06;94075.34;;;8.24;100.00
19457;BME280;9867;48.094;11.478;2023-04-01T13:18:52;94096.81;;;8.16;100.00
19457;BME280;9867;48.094;11.478;2023-04-01T13:21:33;94074.84;;;8.09;100.00
19457;BME280;9867;48.094;11.478;2023-04-01T13:24:11;94087.91;;;8.01;100.00
19457;BME280;9867;48.094;11.478;2023-04-01T13:26:48;94095.75;;;7.99;100.00
19457;BME280;9867;48.094;11.478;2023-04-01T13:29:23;94077.16;;;7.85;100.00
19457;BME280;9867;48.094;11.478;2023-04-01T13:32:03;94096.41;;;7.88;100.00
19457;BME280;9867;48.094;11.478;2023-04-01T13:34:43;94090.03;;;7.72;100.00
19457;BME280;9867;48.094;11.478;2023-04-01T13:37:24;94091.41;;;7.68;100.00
19457;BME280;9867;48.094;11.478;2023-04-01T13:40:14;94105.34;;;7.66;100.00
19457;BME280;9867;48.094;11.478;2023-04-01T13:42:50;94081.94;;;7.75;100.00
19457;BME280;9867;48.094;11.478;2023-04-01T13:45:41;94080.00;;;7.71;100.00
19457;BME280;9867;48.094;11.478;2023-04-01T13:48:40;94084.63;;;7.87;100.00
19457;BME280;9867;48.094;11.478;2023-04-01T13:51:37;94073.50;;;8.06;100.00
19457;BME280;9867;48.094;11.478;2023-04-01T13:57:36;94082.72;;;8.07;100.00
19457;BME280;9867;48.094;11.478;2023-04-01T14:00:35;94095.25;;;8.15;100.00
19457;BME280;9867;48.094;11.478;2023-04-01T14:03:22;94087.34;;;8.24;100.00
19457;BME280;9867;48.094;11.478;2023-04-01T14:06:05;94083.72;;;8.38;100.00
19457;BME280;9867;48.094;11.478;2023-04-01T14:11:29;94080.69;;;8.23;100.00
19457;BME280;9867;48.094;11.478;2023-04-01T14:14:11;94087.19;;;8.18;100.00
19457;BME280;9867;48.094;11.478;2023-04-01T14:16:59;94078.97;;;8.10;100.00
19457;BME280;9867;48.094;11.478;2023-04-01T14:19:43;94077.38;;;8.15;100.00
19457;BME280;9867;48.094;11.478;2023-04-01T14:22:25;94089.25;;;8.28;100.00
19457;BME280;9867;48.094;11.478;2023-04-01T14:25:16;94086.66;;;8.41;100.00
19457;BME280;9867;48.094;11.478;2023-04-01T14:27:55;94089.38;;;8.46;100.00
19457;BME280;9867;48.094;11.478;2023-04-01T14:30:55;94129.13;;;8.36;100.00
19457;BME280;9867;48.094;11.478;2023-04-01T14:33:35;94103.50;;;8.49;100.00
19457;BME280;9867;48.094;11.478;2023-04-01T14:36:30;94089.78;;;8.68;100.00
19457;BME280;9867;48.094;11.478;2023-04-01T14:39:15;94112.56;;;8.45;100.00
19457;BME280;9867;48.094;11.478;2023-04-01T14:41:48;94088.94;;;8.49;100.00
19457;BME280;9867;48.094;11.478;2023-04-01T14:44:36;94078.81;;;8.36;100.00
19457;BME280;9867;48.094;11.478;2023-04-01T14:47:31;94104.81;;;8.27;100.00
19457;BME280;9867;48.094;11.478;2023-04-01T14:50:06;94086.91;;;8.33;100.00
19457;BME280;9867;48.094;11.478;2023-04-01T14:52:40;94111.75;;;8.19;100.00
19457;BME280;9867;48.094;11.478;2023-04-01T14:55:31;94076.56;;;8.21;100.00